createdAt,value
2022-08-27T00:01:22.176Z,16.80
2022-08-27T00:03:49.304Z,16.80
2022-08-27T00:06:19.642Z,16.80
2022-08-27T00:08:48.180Z,16.90
2022-08-27T00:11:17.496Z,16.80
2022-08-27T00:13:45.646Z,16.80
2022-08-27T00:16:15.216Z,16.80
2022-08-27T00:18:44.418Z,16.80
2022-08-27T00:21:16.766Z,16.80
2022-08-27T00:23:44.177Z,16.80
2022-08-27T00:26:11.766Z,16.80
2022-08-27T00:28:39.886Z,16.80
2022-08-27T00:31:07.603Z,16.80
2022-08-27T00:33:37.040Z,16.80
2022-08-27T00:36:05.461Z,16.80
2022-08-27T00:38:36.378Z,16.80
2022-08-27T00:41:03.671Z,16.80
2022-08-27T00:43:43.342Z,16.70
2022-08-27T00:46:32.475Z,16.70
2022-08-27T00:49:07.496Z,16.70
2022-08-27T00:51:37.056Z,16.70
2022-08-27T00:54:05.837Z,16.70
2022-08-27T00:56:39.495Z,16.70
2022-08-27T00:59:07.349Z,16.60
2022-08-27T01:01:35.789Z,16.60
2022-08-27T01:04:06.004Z,16.60
2022-08-27T01:06:37.263Z,16.60
2022-08-27T01:09:09.992Z,16.60
2022-08-27T01:11:38.164Z,16.60
2022-08-27T01:14:06.404Z,16.50
2022-08-27T01:16:40.438Z,16.50
2022-08-27T01:19:14.413Z,16.50
2022-08-27T01:22:00.285Z,16.50
2022-08-27T01:24:41.764Z,16.50
2022-08-27T01:27:13.978Z,16.50
2022-08-27T01:29:42.529Z,16.50
2022-08-27T01:32:14.945Z,16.50
2022-08-27T01:34:42.403Z,16.40
2022-08-27T01:37:09.790Z,16.50
2022-08-27T01:39:39.796Z,16.40
2022-08-27T01:42:20.626Z,16.40
2022-08-27T01:44:50.659Z,16.40
2022-08-27T01:47:20.884Z,16.40
2022-08-27T01:49:48.369Z,16.40
2022-08-27T01:52:19.217Z,16.40
2022-08-27T01:54:47.984Z,16.40
2022-08-27T01:57:16.561Z,16.30
2022-08-27T01:59:43.908Z,16.30
2022-08-27T02:02:12.461Z,16.30
2022-08-27T02:04:39.836Z,16.40
2022-08-27T02:07:07.732Z,16.40
2022-08-27T02:09:34.802Z,16.40
2022-08-27T02:12:02.314Z,16.40
2022-08-27T02:14:29.477Z,16.40
2022-08-27T02:16:56.588Z,16.40
2022-08-27T02:19:23.695Z,16.40
2022-08-27T02:21:51.602Z,16.40
2022-08-27T02:24:18.838Z,16.30
2022-08-27T02:26:45.996Z,16.30
2022-08-27T02:29:13.033Z,16.30
2022-08-27T02:31:41.431Z,16.30
2022-08-27T02:34:09.936Z,16.20
2022-08-27T02:36:37.534Z,16.20
2022-08-27T02:39:06.314Z,16.20
2022-08-27T02:41:33.380Z,16.10
2022-08-27T02:44:01.466Z,16.10
2022-08-27T02:46:29.197Z,16.20
2022-08-27T02:48:56.320Z,16.10
2022-08-27T02:51:23.313Z,16.20
2022-08-27T02:53:50.436Z,16.10
2022-08-27T02:56:21.670Z,16.10
2022-08-27T02:58:49.244Z,16.10
2022-08-27T03:01:16.639Z,16.00
2022-08-27T03:03:43.816Z,16.00
2022-08-27T03:06:11.572Z,16.00
2022-08-27T03:08:52.752Z,16.00
2022-08-27T03:11:23.141Z,16.00
2022-08-27T03:13:50.534Z,16.00
2022-08-27T03:16:17.782Z,16.00
2022-08-27T03:18:45.307Z,16.00
2022-08-27T03:21:24.368Z,15.90
2022-08-27T03:23:52.199Z,15.90
2022-08-27T03:26:20.040Z,15.90
2022-08-27T03:28:47.151Z,15.90
2022-08-27T03:31:22.664Z,15.90
2022-08-27T03:33:49.777Z,15.90
2022-08-27T03:36:16.744Z,15.90
2022-08-27T03:38:43.837Z,15.90
2022-08-27T03:41:11.498Z,15.90
2022-08-27T03:43:38.523Z,15.90
2022-08-27T03:46:07.069Z,15.90
2022-08-27T03:48:34.709Z,15.90
2022-08-27T03:51:12.557Z,15.90
2022-08-27T03:53:41.508Z,15.90
2022-08-27T03:56:09.362Z,15.80
2022-08-27T03:58:37.534Z,15.80
2022-08-27T04:01:07.967Z,15.90
2022-08-27T04:03:35.529Z,15.90
2022-08-27T04:06:03.760Z,15.90
2022-08-27T04:08:31.125Z,15.80
2022-08-27T04:10:58.188Z,15.80
2022-08-27T04:13:25.590Z,15.80
2022-08-27T04:15:55.262Z,15.80
2022-08-27T04:18:22.467Z,15.80
2022-08-27T04:20:52.823Z,15.90
2022-08-27T04:23:20.684Z,15.90
2022-08-27T04:25:48.374Z,15.90
2022-08-27T04:28:16.355Z,15.80
2022-08-27T04:30:46.130Z,15.90
2022-08-27T04:33:14.170Z,15.90
2022-08-27T04:35:42.540Z,15.90
2022-08-27T04:38:09.961Z,15.90
2022-08-27T04:40:56.637Z,15.90
2022-08-27T04:43:23.874Z,15.90
2022-08-27T04:45:51.133Z,15.90
2022-08-27T04:48:19.880Z,15.90
2022-08-27T04:50:48.444Z,15.90
2022-08-27T04:53:17.587Z,15.90
2022-08-27T04:55:47.116Z,15.90
2022-08-27T04:58:14.546Z,15.90
2022-08-27T05:00:48.663Z,16.00
2022-08-27T05:03:18.038Z,16.00
2022-08-27T05:05:47.194Z,15.90
2022-08-27T05:08:14.493Z,15.90
2022-08-27T05:10:43.131Z,15.90
2022-08-27T05:13:11.579Z,15.80
2022-08-27T05:15:40.252Z,15.80
2022-08-27T05:18:08.680Z,15.90
2022-08-27T05:20:43.794Z,15.90
2022-08-27T05:23:11.725Z,15.90
2022-08-27T05:25:41.650Z,15.90
2022-08-27T05:28:10.427Z,16.00
2022-08-27T05:30:40.616Z,15.90
2022-08-27T05:33:08.971Z,15.90
2022-08-27T05:35:43.986Z,16.00
2022-08-27T05:38:11.362Z,16.10
2022-08-27T05:40:43.948Z,16.10
2022-08-27T05:43:13.158Z,16.20
2022-08-27T05:45:46.017Z,16.30
2022-08-27T05:48:14.357Z,16.20
2022-08-27T05:50:43.548Z,16.20
2022-08-27T05:53:12.348Z,16.20
2022-08-27T05:55:42.215Z,16.30
2022-08-27T05:58:30.527Z,16.30
2022-08-27T06:01:10.174Z,16.30
2022-08-27T06:03:38.819Z,16.30
2022-08-27T06:06:11.169Z,16.30
2022-08-27T06:08:39.167Z,16.30
2022-08-27T06:11:07.689Z,16.30
2022-08-27T06:13:36.318Z,16.30
2022-08-27T06:16:08.688Z,16.30
2022-08-27T06:18:38.831Z,16.50
2022-08-27T06:21:06.243Z,16.40
2022-08-27T06:23:33.606Z,16.40
2022-08-27T06:26:02.036Z,16.50
2022-08-27T06:28:30.029Z,16.60
2022-08-27T06:31:15.318Z,16.70
2022-08-27T06:33:44.367Z,16.80
2022-08-27T06:36:14.167Z,16.90
2022-08-27T06:38:43.306Z,17.00
2022-08-27T06:41:16.406Z,17.20
2022-08-27T06:43:51.350Z,17.50
2022-08-27T06:46:22.207Z,17.70
2022-08-27T06:48:56.711Z,17.70
2022-08-27T06:51:26.535Z,17.50
2022-08-27T06:53:55.860Z,17.60
2022-08-27T06:56:23.493Z,17.70
2022-08-27T06:58:55.500Z,17.80
2022-08-27T07:01:30.398Z,18.10
2022-08-27T07:04:03.681Z,18.50
2022-08-27T07:06:33.205Z,18.80
2022-08-27T07:09:01.895Z,18.80
2022-08-27T07:11:32.029Z,19.00
2022-08-27T07:14:00.559Z,19.00
2022-08-27T07:16:29.111Z,19.20
2022-08-27T07:19:03.723Z,19.40
2022-08-27T07:21:33.126Z,19.50
2022-08-27T07:24:05.314Z,19.50
2022-08-27T07:26:38.677Z,19.70
2022-08-27T07:29:07.797Z,20.00
2022-08-27T07:31:38.819Z,20.40
2022-08-27T07:34:07.225Z,21.30
2022-08-27T07:36:35.127Z,22.40
2022-08-27T07:39:02.263Z,23.00
2022-08-27T07:41:32.037Z,23.00
2022-08-27T07:44:20.798Z,22.60
2022-08-27T07:46:49.457Z,22.20
2022-08-27T07:49:20.423Z,22.00
2022-08-27T07:51:47.937Z,22.50
2022-08-27T07:54:15.936Z,22.10
2022-08-27T07:56:44.230Z,21.60
2022-08-27T07:59:22.227Z,21.30
2022-08-27T08:01:51.527Z,21.00
2022-08-27T08:04:20.493Z,21.00
2022-08-27T08:06:48.743Z,20.90
2022-08-27T08:09:16.557Z,20.80
2022-08-27T08:11:43.710Z,20.70
2022-08-27T08:14:10.995Z,20.40
2022-08-27T08:16:38.184Z,20.30
2022-08-27T08:19:05.349Z,20.40
2022-08-27T08:21:34.180Z,20.50
2022-08-27T08:24:02.764Z,20.90
2022-08-27T08:26:30.145Z,21.50
2022-08-27T08:28:58.043Z,21.60
2022-08-27T08:31:25.144Z,21.50
2022-08-27T08:33:52.384Z,21.20
2022-08-27T08:36:19.460Z,21.10
2022-08-27T08:38:47.994Z,20.90
2022-08-27T08:41:45.740Z,20.80
2022-08-27T08:44:34.850Z,20.60
2022-08-27T08:47:10.344Z,20.50
2022-08-27T08:49:37.361Z,20.50
2022-08-27T08:52:40.664Z,20.40
2022-08-27T08:55:16.764Z,20.40
2022-08-27T08:58:07.086Z,20.40
2022-08-27T09:00:34.899Z,20.50
2022-08-27T09:03:01.967Z,20.50
2022-08-27T09:05:30.330Z,20.80
2022-08-27T09:08:28.442Z,20.70
2022-08-27T09:10:59.310Z,20.50
2022-08-27T09:13:33.038Z,20.30
2022-08-27T09:16:04.019Z,20.50
2022-08-27T09:18:35.381Z,20.80
2022-08-27T09:21:28.056Z,21.10
2022-08-27T09:24:19.871Z,21.20
2022-08-27T09:26:47.116Z,21.50
2022-08-27T09:29:18.674Z,21.80
2022-08-27T09:32:08.724Z,22.20
2022-08-27T09:34:39.483Z,22.80
2022-08-27T09:37:18.005Z,23.70
2022-08-27T09:39:52.805Z,23.80
2022-08-27T09:42:27.426Z,23.60
2022-08-27T09:44:55.815Z,23.50
2022-08-27T09:47:23.968Z,23.20
2022-08-27T09:50:07.023Z,23.00
2022-08-27T09:53:08.556Z,22.80
2022-08-27T09:55:40.787Z,22.60
2022-08-27T09:58:16.159Z,22.20
2022-08-27T10:00:43.241Z,21.70
2022-08-27T10:03:11.725Z,21.60
2022-08-27T10:05:47.396Z,21.50
2022-08-27T10:08:39.122Z,21.20
2022-08-27T10:11:12.888Z,21.00
2022-08-27T10:14:16.598Z,20.90
2022-08-27T10:16:52.891Z,20.90
2022-08-27T10:20:02.983Z,20.90
2022-08-27T10:22:55.153Z,21.00
2022-08-27T10:25:55.525Z,21.40
2022-08-27T10:28:28.592Z,21.70
2022-08-27T10:31:22.115Z,21.80
2022-08-27T10:34:03.784Z,21.90
2022-08-27T10:36:44.677Z,22.00
2022-08-27T10:39:22.649Z,22.10
2022-08-27T10:42:14.090Z,22.30
2022-08-27T10:44:54.920Z,22.40
2022-08-27T10:48:00.005Z,22.70
2022-08-27T10:50:42.480Z,22.70
2022-08-27T10:53:23.317Z,22.60
2022-08-27T10:56:01.212Z,22.30
2022-08-27T10:59:00.280Z,22.10
2022-08-27T11:01:48.556Z,21.50
2022-08-27T11:04:21.647Z,21.30
2022-08-27T11:06:58.060Z,21.20
2022-08-27T11:09:56.165Z,21.00
2022-08-27T11:12:32.339Z,20.90
2022-08-27T11:15:06.486Z,21.30
2022-08-27T11:18:07.490Z,21.70
2022-08-27T11:20:40.441Z,22.20
2022-08-27T11:23:12.650Z,23.10
2022-08-27T11:26:02.217Z,24.40
2022-08-27T11:28:53.353Z,26.10
2022-08-27T11:31:23.156Z,26.50
2022-08-27T11:33:58.274Z,26.00
2022-08-27T11:36:43.856Z,25.50
2022-08-27T11:39:52.044Z,24.80
2022-08-27T11:42:43.459Z,24.40
2022-08-27T11:45:20.043Z,24.20
2022-08-27T11:47:59.650Z,24.20
2022-08-27T11:50:28.793Z,24.10
2022-08-27T11:52:58.623Z,24.30
2022-08-27T11:55:33.284Z,24.50
2022-08-27T11:58:29.292Z,24.50
2022-08-27T12:01:02.244Z,24.00
2022-08-27T12:03:35.421Z,23.40
2022-08-27T12:06:29.938Z,23.10
2022-08-27T12:09:14.695Z,22.60
2022-08-27T12:11:56.769Z,22.30
2022-08-27T12:14:45.580Z,22.10
2022-08-27T12:17:45.638Z,21.90
2022-08-27T12:20:30.289Z,21.90
2022-08-27T12:23:26.418Z,21.80
2022-08-27T12:25:58.758Z,21.80
2022-08-27T12:28:27.057Z,21.70
2022-08-27T12:30:56.399Z,21.80
2022-08-27T12:33:32.462Z,21.60
2022-08-27T12:36:15.374Z,21.40
2022-08-27T12:38:53.591Z,21.30
2022-08-27T12:41:44.783Z,21.30
2022-08-27T12:44:27.531Z,21.10
2022-08-27T12:47:13.405Z,21.00
2022-08-27T12:49:58.033Z,20.90
2022-08-27T12:52:31.095Z,21.00
2022-08-27T12:55:30.183Z,21.10
2022-08-27T12:58:24.092Z,21.00
2022-08-27T13:01:03.407Z,21.00
2022-08-27T13:03:36.150Z,21.10
2022-08-27T13:06:14.411Z,21.00
2022-08-27T13:08:41.693Z,21.00
2022-08-27T13:11:21.955Z,20.90
2022-08-27T13:13:50.479Z,21.10
2022-08-27T13:16:22.234Z,21.20
2022-08-27T13:18:51.090Z,21.20
2022-08-27T13:21:27.539Z,21.20
2022-08-27T13:23:54.533Z,21.40
2022-08-27T13:26:24.444Z,21.50
2022-08-27T13:28:52.711Z,21.70
2022-08-27T13:31:23.271Z,21.80
2022-08-27T13:33:51.145Z,21.70
2022-08-27T13:36:33.268Z,21.70
2022-08-27T13:39:03.114Z,21.70
2022-08-27T13:41:35.951Z,21.90
2022-08-27T13:44:12.468Z,21.80
2022-08-27T13:46:48.935Z,21.80
2022-08-27T13:49:24.440Z,21.60
2022-08-27T13:52:14.084Z,21.60
2022-08-27T13:54:47.125Z,21.60
2022-08-27T13:57:31.709Z,21.60
2022-08-27T14:00:10.994Z,21.80
2022-08-27T14:02:38.212Z,21.80
2022-08-27T14:05:05.603Z,21.80
2022-08-27T14:07:45.098Z,21.90
2022-08-27T14:10:18.413Z,22.10
2022-08-27T14:12:55.827Z,22.20
2022-08-27T14:15:47.929Z,22.20
2022-08-27T14:18:58.937Z,22.20
2022-08-27T14:21:26.904Z,22.20
2022-08-27T14:23:54.456Z,22.30
2022-08-27T14:26:21.488Z,22.30
2022-08-27T14:28:48.861Z,22.40
2022-08-27T14:31:16.728Z,22.30
2022-08-27T14:33:44.424Z,22.20
2022-08-27T14:36:11.612Z,22.20
2022-08-27T14:38:42.551Z,22.10
2022-08-27T14:41:09.940Z,22.10
2022-08-27T14:43:38.259Z,22.10
2022-08-27T14:46:07.050Z,22.00
2022-08-27T14:48:35.143Z,22.00
2022-08-27T14:51:12.575Z,22.00
2022-08-27T14:53:39.603Z,22.00
2022-08-27T14:56:06.882Z,22.00
2022-08-27T14:58:35.428Z,21.90
2022-08-27T15:01:03.951Z,21.90
2022-08-27T15:03:31.764Z,21.90
2022-08-27T15:05:58.780Z,21.90
2022-08-27T15:08:29.450Z,22.10
2022-08-27T15:11:00.029Z,22.20
2022-08-27T15:13:27.340Z,22.40
2022-08-27T15:15:54.543Z,22.40
2022-08-27T15:18:21.759Z,22.50
2022-08-27T15:20:49.627Z,22.70
2022-08-27T15:23:17.090Z,23.00
2022-08-27T15:25:46.645Z,23.40
2022-08-27T15:28:13.868Z,23.50
2022-08-27T15:30:41.104Z,23.40
2022-08-27T15:33:08.668Z,23.50
2022-08-27T15:35:35.833Z,23.40
2022-08-27T15:38:03.741Z,23.20
2022-08-27T15:40:34.983Z,23.10
2022-08-27T15:43:05.410Z,22.90
2022-08-27T15:45:33.328Z,23.00
2022-08-27T15:48:01.339Z,23.20
2022-08-27T15:50:29.959Z,23.20
2022-08-27T15:53:00.561Z,23.10
2022-08-27T15:55:31.118Z,23.00
2022-08-27T15:57:58.964Z,22.80
2022-08-27T16:00:28.838Z,22.60
2022-08-27T16:02:57.166Z,22.30
2022-08-27T16:05:25.638Z,22.10
2022-08-27T16:07:52.660Z,22.10
2022-08-27T16:10:19.977Z,22.10
2022-08-27T16:12:47.026Z,22.00
2022-08-27T16:15:15.101Z,22.00
2022-08-27T16:17:43.208Z,21.80
2022-08-27T16:20:13.108Z,21.60
2022-08-27T16:22:41.069Z,21.40
2022-08-27T16:25:09.597Z,21.30
2022-08-27T16:27:37.847Z,21.10
2022-08-27T16:30:06.503Z,20.90
2022-08-27T16:32:33.582Z,20.90
2022-08-27T16:35:00.655Z,20.80
2022-08-27T16:37:27.637Z,20.80
2022-08-27T16:39:54.857Z,20.90
2022-08-27T16:42:21.974Z,20.80
2022-08-27T16:44:49.625Z,20.80
2022-08-27T16:47:16.851Z,20.80
2022-08-27T16:50:02.361Z,20.70
2022-08-27T16:52:29.613Z,20.60
2022-08-27T16:54:56.975Z,20.50
2022-08-27T16:57:24.087Z,20.30
2022-08-27T16:59:51.596Z,20.20
2022-08-27T17:02:31.819Z,20.10
2022-08-27T17:05:23.865Z,20.00
2022-08-27T17:07:49.966Z,19.90
2022-08-27T17:10:20.492Z,19.80
2022-08-27T17:12:48.267Z,19.70
2022-08-27T17:15:17.065Z,19.70
2022-08-27T17:17:45.668Z,19.60
2022-08-27T17:20:13.469Z,19.60
2022-08-27T17:22:40.954Z,19.60
2022-08-27T17:25:08.796Z,19.50
2022-08-27T17:27:35.988Z,19.50
2022-08-27T17:30:03.232Z,19.40
2022-08-27T17:32:34.763Z,19.40
2022-08-27T17:35:05.944Z,19.40
2022-08-27T17:37:34.050Z,19.30
2022-08-27T17:40:01.566Z,19.30
2022-08-27T17:42:29.710Z,19.30
2022-08-27T17:44:57.514Z,19.20
2022-08-27T17:47:27.956Z,19.10
2022-08-27T17:49:55.057Z,19.00
2022-08-27T17:52:22.476Z,18.90
2022-08-27T17:54:54.692Z,18.80
2022-08-27T17:57:28.151Z,18.70
2022-08-27T17:59:56.395Z,18.60
2022-08-27T18:02:41.224Z,18.40
2022-08-27T18:05:12.366Z,18.40
2022-08-27T18:07:40.813Z,18.30
2022-08-27T18:10:10.110Z,18.20
2022-08-27T18:12:37.650Z,18.10
2022-08-27T18:15:18.816Z,17.90
2022-08-27T18:17:48.311Z,17.80
2022-08-27T18:20:22.203Z,17.70
2022-08-27T18:22:49.990Z,17.50
2022-08-27T18:25:19.435Z,17.40
2022-08-27T18:27:49.187Z,17.30
2022-08-27T18:30:16.462Z,17.20
2022-08-27T18:32:43.471Z,17.10
2022-08-27T18:35:23.698Z,17.00
2022-08-27T18:37:51.189Z,16.90
2022-08-27T18:40:20.216Z,16.80
2022-08-27T18:42:48.364Z,16.70
2022-08-27T18:45:23.025Z,16.70
2022-08-27T18:47:54.731Z,16.60
2022-08-27T18:50:22.719Z,16.60
2022-08-27T18:52:54.076Z,16.50
2022-08-27T18:55:25.719Z,16.50
2022-08-27T18:57:52.806Z,16.50
2022-08-27T19:00:20.616Z,16.40
2022-08-27T19:02:52.638Z,16.40
2022-08-27T19:05:27.318Z,16.40
2022-08-27T19:07:56.402Z,16.40
2022-08-27T19:10:24.031Z,16.40
2022-08-27T19:12:51.535Z,16.40
2022-08-27T19:15:18.855Z,16.40
2022-08-27T19:17:50.009Z,16.40
2022-08-27T19:20:18.710Z,16.30
2022-08-27T19:22:46.668Z,16.30
2022-08-27T19:25:15.584Z,16.20
2022-08-27T19:27:44.238Z,16.20
2022-08-27T19:30:13.143Z,16.20
2022-08-27T19:32:40.161Z,16.10
2022-08-27T19:35:08.288Z,16.10
2022-08-27T19:37:39.443Z,16.00
2022-08-27T19:40:09.628Z,15.90
2022-08-27T19:42:36.800Z,15.90
2022-08-27T19:45:04.516Z,15.80
2022-08-27T19:47:32.798Z,15.80
2022-08-27T19:50:00.152Z,15.70
2022-08-27T19:52:27.257Z,15.70
2022-08-27T19:55:13.258Z,15.60
2022-08-27T19:57:42.257Z,15.50
2022-08-27T20:00:11.462Z,15.40
2022-08-27T20:02:38.568Z,15.30
2022-08-27T20:05:22.040Z,15.30
2022-08-27T20:07:51.819Z,15.20
2022-08-27T20:10:23.029Z,15.20
2022-08-27T20:12:53.162Z,15.10
2022-08-27T20:15:21.348Z,15.10
2022-08-27T20:17:52.576Z,15.00
2022-08-27T20:20:23.309Z,15.00
2022-08-27T20:22:50.673Z,15.00
2022-08-27T20:25:18.564Z,15.00
2022-08-27T20:27:46.633Z,15.00
2022-08-27T20:30:15.641Z,15.00
2022-08-27T20:32:43.292Z,15.00
2022-08-27T20:35:11.256Z,15.00
2022-08-27T20:37:42.211Z,15.00
2022-08-27T20:40:13.555Z,15.00
2022-08-27T20:42:40.792Z,15.00
2022-08-27T20:45:11.947Z,15.00
2022-08-27T20:47:40.748Z,15.00
2022-08-27T20:50:08.420Z,15.00
2022-08-27T20:52:36.963Z,15.00
2022-08-27T20:55:04.757Z,15.00
2022-08-27T20:57:31.843Z,15.00
2022-08-27T21:00:17.236Z,15.10
2022-08-27T21:02:46.185Z,15.00
2022-08-27T21:05:16.815Z,15.00
2022-08-27T21:07:45.088Z,14.90
2022-08-27T21:10:12.267Z,14.90
2022-08-27T21:12:39.424Z,14.90
2022-08-27T21:15:08.177Z,14.90
2022-08-27T21:17:36.012Z,14.90
2022-08-27T21:20:11.119Z,14.90
2022-08-27T21:22:40.814Z,14.90
2022-08-27T21:25:09.416Z,14.90
2022-08-27T21:27:37.192Z,14.90
2022-08-27T21:30:05.052Z,14.90
2022-08-27T21:32:32.279Z,14.90
2022-08-27T21:34:59.302Z,14.90
2022-08-27T21:37:26.304Z,14.90
2022-08-27T21:39:53.472Z,14.90
2022-08-27T21:42:22.365Z,14.80
2022-08-27T21:44:49.630Z,14.80
2022-08-27T21:47:16.738Z,14.80
2022-08-27T21:49:44.402Z,14.80
2022-08-27T21:52:11.399Z,14.80
2022-08-27T21:54:41.911Z,14.80
2022-08-27T21:57:14.258Z,14.80
2022-08-27T21:59:50.103Z,14.80
2022-08-27T22:02:38.889Z,14.80
2022-08-27T22:05:08.004Z,14.80
2022-08-27T22:07:35.265Z,14.80
2022-08-27T22:10:02.578Z,14.80
2022-08-27T22:12:29.789Z,14.80
2022-08-27T22:14:56.893Z,14.80
2022-08-27T22:17:25.382Z,14.70
2022-08-27T22:19:52.845Z,14.80
2022-08-27T22:22:21.202Z,14.80
2022-08-27T22:24:48.364Z,14.70
2022-08-27T22:27:15.632Z,14.70
2022-08-27T22:29:42.832Z,14.70
2022-08-27T22:32:09.847Z,14.70
2022-08-27T22:34:37.087Z,14.70
2022-08-27T22:37:06.916Z,14.70
2022-08-27T22:39:33.938Z,14.60
2022-08-27T22:42:01.126Z,14.60
2022-08-27T22:44:29.649Z,14.60
2022-08-27T22:46:57.466Z,14.70
2022-08-27T22:49:24.710Z,14.70
2022-08-27T22:51:51.749Z,14.70
2022-08-27T22:54:19.185Z,14.70
2022-08-27T22:56:46.223Z,14.60
2022-08-27T22:59:13.231Z,14.70
2022-08-27T23:01:40.593Z,14.70
2022-08-27T23:04:07.837Z,14.60
2022-08-27T23:06:35.093Z,14.60
2022-08-27T23:09:02.442Z,14.60
2022-08-27T23:11:31.728Z,14.60
2022-08-27T23:13:59.984Z,14.60
2022-08-27T23:16:30.528Z,14.60
2022-08-27T23:18:57.744Z,14.60
2022-08-27T23:21:24.819Z,14.60
2022-08-27T23:23:52.101Z,14.60
2022-08-27T23:26:37.641Z,14.60
2022-08-27T23:29:05.564Z,14.60
2022-08-27T23:31:32.910Z,14.60
2022-08-27T23:34:00.682Z,14.50
2022-08-27T23:36:29.369Z,14.50
2022-08-27T23:38:58.339Z,14.60
2022-08-27T23:41:27.201Z,14.50
2022-08-27T23:43:54.398Z,14.50
2022-08-27T23:46:21.610Z,14.40
2022-08-27T23:48:48.694Z,14.50
2022-08-27T23:51:15.783Z,14.50
2022-08-27T23:53:42.782Z,14.40
2022-08-27T23:56:10.796Z,14.40
2022-08-27T23:58:37.863Z,14.40
